Time;durP1;ratioP1;P1;durP2;ratioP2;P2;SDS_P1;SDS_P2;PMS_P1;PMS_P2;Temp;Humidity;BMP_temperature;BMP_pressure;BME280_temperature;BME280_humidity;BME280_pressure;Samples;Min_cycle;Max_cycle;Signal;HPM_P1;HPM_P2
2023/01/19 00:02:59;;;;;;;6.28;3.78;;;;;;;0.79;100.00;99647.94;6249013;28;20417;-70
2023/01/19 00:06:04;;;;;;;9.88;4.63;;;;;;;0.81;100.00;99648.72;6248882;28;20045;-70
2023/01/19 00:09:06;;;;;;;8.80;3.63;;;;;;;0.82;100.00;99646.97;6249272;28;20060;-70
2023/01/19 00:12:07;;;;;;;12.65;4.10;;;;;;;0.84;100.00;99658.16;6248630;28;20056;-70
2023/01/19 00:15:09;;;;;;;16.58;3.50;;;;;;;0.80;100.00;99659.97;6248645;28;20045;-70
2023/01/19 00:18:12;;;;;;;6.05;4.07;;;;;;;0.85;100.00;99649.47;6248884;28;20057;-70
2023/01/19 00:21:14;;;;;;;8.82;3.58;;;;;;;0.85;100.00;99660.66;6248391;28;20046;-70
2023/01/19 00:24:16;;;;;;;9.27;4.00;;;;;;;0.85;100.00;99645.16;6248649;28;20052;-70
2023/01/19 00:27:17;;;;;;;5.72;2.83;;;;;;;0.75;100.00;99647.19;6248389;28;20463;-70
2023/01/19 00:30:19;;;;;;;8.25;3.80;;;;;;;0.81;100.00;99653.06;6248056;28;20405;-70
2023/01/19 00:33:21;;;;;;;5.47;3.22;;;;;;;0.79;100.00;99644.50;6248323;28;20053;-71
2023/01/19 00:36:23;;;;;;;12.68;4.18;;;;;;;0.72;100.00;99644.69;6248078;28;20049;-70
2023/01/19 00:39:24;;;;;;;6.05;3.35;;;;;;;0.66;100.00;99647.47;6248234;28;20052;-71
2023/01/19 00:42:43;;;;;;;5.47;3.30;;;;;;;0.73;100.00;99641.22;6248188;28;20057;-70
2023/01/19 00:45:45;;;;;;;5.43;3.47;;;;;;;0.74;100.00;99653.25;6248026;28;20099;-70
2023/01/19 00:48:48;;;;;;;5.40;3.75;;;;;;;0.66;100.00;99642.28;6248162;28;20057;-70
2023/01/19 00:51:49;;;;;;;6.28;3.50;;;;;;;0.67;100.00;99646.56;6247705;28;20516;-70
2023/01/19 00:54:50;;;;;;;4.80;2.63;;;;;;;0.64;100.00;99646.69;6248082;28;20061;-69
2023/01/19 00:57:51;;;;;;;6.25;3.47;;;;;;;0.64;100.00;99643.25;6247891;28;20045;-70
2023/01/19 01:00:56;;;;;;;10.15;3.53;;;;;;;0.59;100.00;99640.81;6247480;28;20046;-70
2023/01/19 01:03:58;;;;;;;5.30;3.20;;;;;;;0.65;100.00;99648.38;6247476;28;20079;-70
2023/01/19 01:07:00;;;;;;;5.88;2.90;;;;;;;0.67;100.00;99651.75;6247422;28;20050;-70
2023/01/19 01:10:01;;;;;;;8.25;3.67;;;;;;;0.76;100.00;99661.78;6247611;28;20048;-71
2023/01/19 01:13:02;;;;;;;7.60;4.35;;;;;;;0.75;100.00;99660.09;6247278;28;20139;-70
2023/01/19 01:16:06;;;;;;;9.27;4.30;;;;;;;0.81;100.00;99660.81;6247429;28;20049;-70
2023/01/19 01:19:09;;;;;;;6.72;2.88;;;;;;;0.84;100.00;99663.31;6247230;28;20409;-70
2023/01/19 01:22:10;;;;;;;6.50;3.38;;;;;;;0.90;100.00;99661.38;6247153;28;20049;-70
2023/01/19 01:25:12;;;;;;;8.27;4.47;;;;;;;0.92;100.00;99664.78;6247196;28;20056;-70
2023/01/19 01:28:14;;;;;;;7.90;3.50;;;;;;;0.93;100.00;99663.03;6247231;28;20397;-68
2023/01/19 01:31:15;;;;;;;8.88;3.72;;;;;;;1.04;100.00;99660.94;6247256;28;20052;-70
2023/01/19 01:34:18;;;;;;;7.95;3.35;;;;;;;1.02;100.00;99650.66;6246927;28;20053;-70
2023/01/19 01:37:19;;;;;;;13.73;4.55;;;;;;;1.02;100.00;99661.00;6246855;28;20080;-70
2023/01/19 01:40:21;;;;;;;14.07;4.90;;;;;;;1.06;100.00;99650.56;6246589;28;20049;-71
2023/01/19 01:43:22;;;;;;;6.07;3.20;;;;;;;1.02;100.00;99661.00;6246729;28;20049;-69
2023/01/19 01:46:25;;;;;;;6.75;3.15;;;;;;;1.12;100.00;99666.72;6246757;28;20413;-70
2023/01/19 01:49:29;;;;;;;7.60;3.83;;;;;;;1.05;100.00;99660.06;6246702;28;20045;-68
2023/01/19 01:52:34;;;;;;;9.80;4.10;;;;;;;1.06;100.00;99659.16;6246681;28;20057;-69
2023/01/19 01:55:37;;;;;;;7.03;3.75;;;;;;;1.09;100.00;99661.66;6247135;28;20056;-69
2023/01/19 01:58:40;;;;;;;6.50;3.30;;;;;;;1.14;100.00;99664.94;6246806;28;20055;-68
2023/01/19 02:05:06;;;;;;;10.02;4.65;;;;;;;1.14;100.00;99658.91;6246605;28;20057;-70
2023/01/19 02:14:51;;;;;;;8.95;4.30;;;;;;;1.16;100.00;99660.53;6246415;28;20057;-70
2023/01/19 02:17:53;;;;;;;9.70;4.57;;;;;;;1.17;100.00;99654.47;6246295;28;20420;-71
2023/01/19 02:21:04;;;;;;;10.73;3.88;;;;;;;1.27;100.00;99650.72;6246168;28;20448;-71
2023/01/19 02:24:07;;;;;;;8.13;4.43;;;;;;;1.22;100.00;99654.31;6246369;28;20133;-70
2023/01/19 02:27:11;;;;;;;9.40;4.18;;;;;;;1.25;100.00;99656.81;6246518;28;20045;-68
2023/01/19 02:30:15;;;;;;;13.13;4.90;;;;;;;1.24;100.00;99658.56;6245826;28;20417;-70
2023/01/19 02:33:16;;;;;;;7.10;4.05;;;;;;;1.28;100.00;99648.97;6246201;28;20425;-68
2023/01/19 02:36:22;;;;;;;9.63;3.83;;;;;;;1.34;100.00;99653.09;6246161;28;20061;-70
2023/01/19 02:39:32;;;;;;;13.70;3.92;;;;;;;1.29;100.00;99644.63;6246434;28;20529;-70
2023/01/19 02:42:36;;;;;;;11.73;4.45;;;;;;;1.25;100.00;99638.69;6245937;28;20052;-71
2023/01/19 02:45:39;;;;;;;7.75;4.03;;;;;;;1.31;100.00;99641.06;6246261;28;20056;-70
2023/01/19 02:48:41;;;;;;;4.97;3.53;;;;;;;1.30;100.00;99647.16;6246222;28;20057;-68
2023/01/19 02:51:44;;;;;;;8.93;4.75;;;;;;;1.33;100.00;99646.22;6249401;28;20045;-68
2023/01/19 02:54:58;;;;;;;14.50;4.30;;;;;;;1.41;100.00;99646.78;6250476;28;20053;-70
2023/01/19 02:58:09;;;;;;;8.65;4.20;;;;;;;1.46;100.00;99639.75;6250509;28;20053;-68
2023/01/19 03:01:16;;;;;;;5.72;4.13;;;;;;;1.44;100.00;99646.69;6250480;28;20061;-69
2023/01/19 03:04:27;;;;;;;10.05;4.18;;;;;;;1.44;100.00;99641.50;6250584;28;20046;-70
2023/01/19 03:07:41;;;;;;;11.38;4.35;;;;;;;1.42;100.00;99636.41;6250631;28;20524;-70
2023/01/19 03:10:53;;;;;;;14.65;6.60;;;;;;;1.39;100.00;99631.31;6250571;28;20061;-70
2023/01/19 03:13:59;;;;;;;8.25;4.82;;;;;;;1.41;100.00;99633.84;6249934;28;20049;-71
2023/01/19 03:17:05;;;;;;;9.55;4.57;;;;;;;1.39;100.00;99631.31;6250418;28;20049;-70
2023/01/19 03:20:08;;;;;;;11.07;4.35;;;;;;;1.44;100.00;99644.94;6249998;28;20045;-70
2023/01/19 03:23:13;;;;;;;9.55;4.20;;;;;;;1.44;100.00;99646.69;6250171;28;20049;-70
2023/01/19 03:26:24;;;;;;;10.30;4.80;;;;;;;1.43;100.00;99643.25;6249601;28;20088;-71
2023/01/19 03:29:29;;;;;;;7.63;4.35;;;;;;;1.44;100.00;99644.94;6250046;28;20050;-71
2023/01/19 03:32:35;;;;;;;8.68;4.55;;;;;;;1.45;100.00;99638.91;6249759;28;20422;-70
2023/01/19 03:35:41;;;;;;;8.88;4.82;;;;;;;1.45;100.00;99638.91;6248705;28;20053;-70
2023/01/19 03:38:46;;;;;;;9.93;4.68;;;;;;;1.47;100.00;99641.44;6249701;28;20076;-70
2023/01/19 03:41:52;;;;;;;16.05;5.78;;;;;;;1.52;100.00;99642.09;6249321;28;20187;-70
2023/01/19 03:44:55;;;;;;;12.77;4.45;;;;;;;1.53;100.00;99639.47;6249667;28;20660;-70
2023/01/19 03:47:59;;;;;;;7.03;4.45;;;;;;;1.51;100.00;99651.63;6249573;28;20056;-70
2023/01/19 03:51:03;;;;;;;10.10;5.07;;;;;;;1.54;100.00;99640.31;6249170;28;20455;-71
2023/01/19 03:54:05;;;;;;;14.60;5.50;;;;;;;1.61;100.00;99641.78;6249293;28;20049;-70
2023/01/19 03:57:08;;;;;;;7.38;4.68;;;;;;;1.59;100.00;99642.72;6249679;28;20049;-70
2023/01/19 04:00:11;;;;;;;9.50;4.80;;;;;;;1.60;100.00;99640.09;6248911;28;20107;-70
2023/01/19 04:03:15;;;;;;;10.90;4.43;;;;;;;1.61;100.00;99640.94;6249262;28;20065;-70
2023/01/19 04:06:17;;;;;;;10.10;5.05;;;;;;;1.67;100.00;99635.56;6249010;28;20057;-70
2023/01/19 04:09:18;;;;;;;6.95;4.38;;;;;;;1.69;100.00;99633.78;6248805;28;20504;-70
2023/01/19 04:12:21;;;;;;;8.57;4.88;;;;;;;1.64;100.00;99626.16;6248955;28;20061;-70
2023/01/19 04:15:22;;;;;;;9.13;4.40;;;;;;;1.67;100.00;99632.97;6248613;28;20422;-70
2023/01/19 04:18:23;;;;;;;8.68;5.15;;;;;;;1.68;100.00;99632.94;6248988;28;20056;-70
2023/01/19 04:21:25;;;;;;;11.60;5.10;;;;;;;1.70;100.00;99632.88;6248444;28;20049;-70
2023/01/19 04:24:26;;;;;;;8.82;5.20;;;;;;;1.68;100.00;99632.94;6248421;28;20386;-70
2023/01/19 04:27:29;;;;;;;9.32;4.63;;;;;;;1.70;100.00;99631.13;6248166;28;20056;-68
2023/01/19 04:30:30;;;;;;;11.15;4.63;;;;;;;1.74;100.00;99637.03;6248134;28;20049;-70
2023/01/19 04:33:32;;;;;;;8.02;4.75;;;;;;;1.68;100.00;99634.66;6248711;28;20057;-70
2023/01/19 04:36:34;;;;;;;8.35;4.07;;;;;;;1.76;100.00;99623.13;6248212;28;20049;-70
2023/01/19 04:39:35;;;;;;;6.13;3.83;;;;;;;1.70;100.00;99628.53;6248403;28;20489;-70
2023/01/19 04:42:38;;;;;;;13.85;5.93;;;;;;;1.69;100.00;99623.41;6248023;28;20042;-71
2023/01/19 04:45:39;;;;;;;14.43;5.35;;;;;;;1.69;100.00;99623.41;6248138;28;20489;-70
2023/01/19 04:48:41;;;;;;;9.75;4.72;;;;;;;1.70;100.00;99622.50;6248147;28;20053;-70
2023/01/19 04:51:42;;;;;;;7.65;4.55;;;;;;;1.69;100.00;99637.19;6248240;28;20041;-70
2023/01/19 04:54:43;;;;;;;10.35;5.00;;;;;;;1.68;100.00;99627.75;6247854;28;20060;-68
2023/01/19 04:57:46;;;;;;;9.68;4.38;;;;;;;1.68;100.00;99625.16;6247879;28;20502;-68
2023/01/19 05:00:47;;;;;;;9.20;4.40;;;;;;;1.74;100.00;99624.94;6247667;28;20048;-70
2023/01/19 05:03:49;;;;;;;9.32;4.28;;;;;;;1.76;100.00;99636.06;6247703;28;20055;-70
2023/01/19 05:06:50;;;;;;;7.55;4.00;;;;;;;1.74;100.00;99639.63;6247796;28;20489;-70
2023/01/19 05:09:52;;;;;;;9.85;4.10;;;;;;;1.82;100.00;99641.94;6247307;28;20068;-70
2023/01/19 05:12:55;;;;;;;10.40;5.28;;;;;;;1.78;100.00;99647.25;6246672;28;20045;-70
2023/01/19 05:15:56;;;;;;;8.27;4.75;;;;;;;1.74;100.00;99644.81;6247313;28;20056;-70
2023/01/19 05:18:57;;;;;;;7.05;4.28;;;;;;;1.74;100.00;99656.00;6247607;28;20049;-70
2023/01/19 05:21:59;;;;;;;10.38;4.95;;;;;;;1.85;100.00;99652.19;6246908;28;20076;-70
2023/01/19 05:25:01;;;;;;;19.08;5.20;;;;;;;1.87;100.00;99650.41;6247036;28;20053;-70
2023/01/19 05:28:04;;;;;;;7.30;4.28;;;;;;;1.81;100.00;99648.84;6246670;28;20394;-70
2023/01/19 05:31:05;;;;;;;9.00;5.60;;;;;;;1.92;100.00;99643.31;6247046;28;20056;-70
2023/01/19 05:34:07;;;;;;;13.55;5.13;;;;;;;1.82;100.00;99645.38;6247111;28;20542;-70
2023/01/19 05:37:08;;;;;;;13.63;5.93;;;;;;;1.73;100.00;99654.31;6246930;28;20053;-70
2023/01/19 05:40:10;;;;;;;11.93;5.18;;;;;;;1.74;100.00;99655.16;6246977;28;20057;-70
2023/01/19 05:43:14;;;;;;;8.77;4.25;;;;;;;1.67;100.00;99659.69;6246889;28;20045;-70
2023/01/19 05:46:15;;;;;;;10.23;4.47;;;;;;;1.66;100.00;99655.41;6247327;28;20045;-70
2023/01/19 05:49:16;;;;;;;8.05;4.95;;;;;;;1.61;100.00;99649.56;6246828;28;20053;-71
2023/01/19 05:52:17;;;;;;;14.52;5.65;;;;;;;1.63;100.00;99654.69;6246762;28;20437;-70
2023/01/19 05:55:19;;;;;;;14.57;6.35;;;;;;;1.60;100.00;99657.41;6246628;28;20045;-70
2023/01/19 05:58:22;;;;;;;8.52;5.43;;;;;;;1.67;100.00;99656.25;6246684;28;20049;-70
2023/01/19 06:01:23;;;;;;;11.68;5.85;;;;;;;1.69;100.00;99660.50;6246347;28;20049;-70
2023/01/19 06:04:24;;;;;;;8.40;4.57;;;;;;;1.71;100.00;99656.09;6246739;28;20072;-70
2023/01/19 06:07:26;;;;;;;9.25;5.03;;;;;;;1.73;100.00;99659.50;6246681;28;20049;-71
2023/01/19 06:10:27;;;;;;;13.82;5.93;;;;;;;1.70;100.00;99648.41;6246215;28;20409;-70
2023/01/19 06:13:30;;;;;;;10.05;5.45;;;;;;;1.70;100.00;99656.16;6246736;28;20048;-70
2023/01/19 06:16:31;;;;;;;11.30;5.15;;;;;;;1.71;100.00;99650.94;6246226;28;20049;-68
2023/01/19 06:19:33;;;;;;;9.55;5.55;;;;;;;1.80;100.00;99662.72;6246580;28;20516;-68
2023/01/19 06:22:34;;;;;;;12.68;5.88;;;;;;;1.75;100.00;99657.69;6246020;28;20382;-67
2023/01/19 06:25:36;;;;;;;15.43;5.55;;;;;;;1.81;100.00;99667.00;6250364;28;20057;-68
2023/01/19 06:28:38;;;;;;;13.95;5.65;;;;;;;1.89;100.00;99661.56;6250899;28;20053;-68
2023/01/19 06:31:40;;;;;;;9.48;4.93;;;;;;;1.88;100.00;99665.88;6250840;28;20432;-68
2023/01/19 06:34:42;;;;;;;7.32;4.32;;;;;;;1.94;100.00;99675.19;6251593;28;20054;-70
2023/01/19 06:37:43;;;;;;;11.18;5.90;;;;;;;1.91;100.00;99673.56;6251491;28;20497;-71
2023/01/19 06:40:45;;;;;;;11.43;5.55;;;;;;;1.96;100.00;99679.41;6250767;28;20056;-68
2023/01/19 06:43:48;;;;;;;9.18;5.03;;;;;;;1.97;100.00;99686.28;6251106;28;20053;-70
2023/01/19 06:46:49;;;;;;;10.95;5.20;;;;;;;1.96;100.00;99686.34;6250937;28;20052;-68
2023/01/19 06:49:51;;;;;;;12.65;5.03;;;;;;;1.96;100.00;99697.56;6250894;28;20060;-67
2023/01/19 06:52:53;;;;;;;15.05;5.50;;;;;;;2.03;100.00;99699.00;6250820;28;20057;-68
2023/01/19 06:55:58;;;;;;;6.50;4.25;;;;;;;2.00;100.00;99700.91;6250491;28;20042;-68
2023/01/19 06:59:01;;;;;;;10.85;5.30;;;;;;;1.98;100.00;99703.53;6250921;28;20485;-70
2023/01/19 07:02:02;;;;;;;6.95;4.22;;;;;;;2.00;100.00;99701.75;6250271;28;20049;-70
2023/01/19 07:05:05;;;;;;;11.13;4.50;;;;;;;2.04;100.00;99705.03;6250510;28;20053;-70
2023/01/19 07:08:06;;;;;;;9.70;4.13;;;;;;;2.06;100.00;99705.84;6250508;28;20257;-70
2023/01/19 07:11:10;;;;;;;9.35;4.78;;;;;;;2.10;100.00;99711.78;6250340;28;20053;-68
2023/01/19 07:14:13;;;;;;;7.13;3.50;;;;;;;2.05;100.00;99714.53;6250188;28;20537;-70
2023/01/19 07:17:14;;;;;;;9.32;5.00;;;;;;;2.06;100.00;99713.63;6250381;28;20049;-68
2023/01/19 07:20:18;;;;;;;7.82;4.65;;;;;;;2.02;100.00;99723.25;6249842;28;20081;-68
2023/01/19 07:23:19;;;;;;;6.18;4.03;;;;;;;2.07;100.00;99723.09;6250282;28;20060;-70
2023/01/19 07:26:23;;;;;;;7.63;4.20;;;;;;;2.03;100.00;99727.53;6249336;28;20049;-70
2023/01/19 07:29:26;;;;;;;8.18;4.72;;;;;;;2.10;100.00;99728.16;6250078;28;20077;-68
2023/01/19 07:32:28;;;;;;;7.70;3.05;;;;;;;2.10;100.00;99730.75;6249568;28;20072;-70
2023/01/19 07:35:29;;;;;;;8.32;4.18;;;;;;;2.11;100.00;99729.84;6249010;28;20053;-71
2023/01/19 07:38:31;;;;;;;8.38;4.18;;;;;;;2.04;100.00;99736.13;6249815;28;20057;-67
2023/01/19 07:41:32;;;;;;;7.70;4.32;;;;;;;2.02;100.00;99733.59;6249624;28;20046;-70
2023/01/19 07:44:35;;;;;;;7.20;3.97;;;;;;;2.01;100.00;99737.09;6249666;28;20058;-70
2023/01/19 07:47:37;;;;;;;8.43;4.20;;;;;;;2.05;100.00;99742.19;6249709;28;20092;-71
2023/01/19 07:50:38;;;;;;;6.93;3.88;;;;;;;2.03;100.00;99750.00;6249138;28;20432;-68
2023/01/19 07:53:40;;;;;;;7.32;4.03;;;;;;;1.95;100.00;99752.00;6249459;28;20042;-68
2023/01/19 07:56:41;;;;;;;5.72;3.70;;;;;;;1.97;100.00;99753.66;6249455;28;20042;-70
2023/01/19 07:59:44;;;;;;;7.10;3.92;;;;;;;1.96;100.00;99769.25;6249219;28;20057;-70
2023/01/19 08:02:48;;;;;;;6.90;3.88;;;;;;;1.92;100.00;99768.50;6249201;28;20076;-70
2023/01/19 08:05:51;;;;;;;5.13;3.15;;;;;;;1.86;100.00;99773.03;6248952;28;20049;-70
2023/01/19 08:08:52;;;;;;;6.13;3.75;;;;;;;1.82;100.00;99779.22;6249139;28;20440;-70
2023/01/19 08:11:53;;;;;;;9.13;4.47;;;;;;;1.79;100.00;99777.59;6248782;28;20053;-70
2023/01/19 08:14:56;;;;;;;5.22;3.30;;;;;;;1.76;100.00;99781.09;6249326;28;20053;-70
2023/01/19 08:17:58;;;;;;;7.43;3.92;;;;;;;1.69;100.00;99782.22;6248855;28;20421;-70
2023/01/19 08:21:00;;;;;;;8.75;3.72;;;;;;;1.66;100.00;99781.47;6248729;28;20505;-70
2023/01/19 08:24:02;;;;;;;6.72;3.78;;;;;;;1.64;100.00;99791.88;6248429;28;20151;-70
2023/01/19 08:27:03;;;;;;;4.82;3.65;;;;;;;1.65;100.00;99785.81;6248046;28;20053;-71
2023/01/19 08:30:07;;;;;;;7.15;4.40;;;;;;;1.63;100.00;99797.09;6248497;28;20060;-69
2023/01/19 08:33:08;;;;;;;8.57;4.75;;;;;;;1.60;100.00;99807.56;6248293;28;20052;-68
2023/01/19 08:36:10;;;;;;;6.00;3.10;;;;;;;1.58;100.00;99807.59;6248276;28;20052;-68
2023/01/19 08:39:12;;;;;;;10.50;4.57;;;;;;;1.60;100.00;99813.59;6248394;28;20061;-68
2023/01/19 08:42:13;;;;;;;13.15;3.63;;;;;;;1.56;100.00;99816.31;6247994;28;20059;-70
2023/01/19 08:45:16;;;;;;;7.45;4.22;;;;;;;1.51;100.00;99827.66;6248097;28;20386;-70
2023/01/19 08:48:19;;;;;;;7.88;4.05;;;;;;;1.55;100.00;99830.19;6248131;28;20049;-70
2023/01/19 08:51:20;;;;;;;7.18;3.45;;;;;;;1.52;100.00;99831.09;6247802;28;20049;-71
2023/01/19 08:54:23;;;;;;;6.32;2.97;;;;;;;1.48;100.00;99839.84;6248093;28;20064;-70
2023/01/19 08:57:24;;;;;;;8.27;4.22;;;;;;;1.50;100.00;99848.44;6247904;28;20053;-68
2023/01/19 09:00:30;;;;;;;6.53;3.80;;;;;;;1.51;100.00;99850.13;6247803;28;20053;-70
2023/01/19 09:03:31;;;;;;;6.10;3.72;;;;;;;1.48;100.00;99850.22;6247728;28;20049;-71
2023/01/19 09:06:33;;;;;;;8.40;3.85;;;;;;;1.49;100.00;99844.13;6247690;28;20053;-70
2023/01/19 09:09:36;;;;;;;4.78;3.30;;;;;;;1.46;100.00;99849.44;6247742;28;20053;-71
2023/01/19 09:12:37;;;;;;;8.60;4.45;;;;;;;1.44;100.00;99848.59;6247302;28;20092;-71
2023/01/19 09:15:42;;;;;;;5.78;3.40;;;;;;;1.46;100.00;99849.44;6247553;28;20046;-70
2023/01/19 09:18:44;;;;;;;9.35;4.40;;;;;;;1.40;100.00;99860.78;6247282;28;20183;-70
2023/01/19 09:21:45;;;;;;;4.93;3.75;;;;;;;1.45;100.00;99858.06;6247139;28;20057;-71
2023/01/19 09:24:47;;;;;;;6.63;4.32;;;;;;;1.45;100.00;99866.69;6247196;28;20481;-71
2023/01/19 09:27:48;;;;;;;7.05;3.20;;;;;;;1.42;100.00;99871.13;6247412;28;20045;-68
2023/01/19 09:30:51;;;;;;;6.50;3.72;;;;;;;1.38;100.00;99870.34;6246983;28;20576;-70
2023/01/19 09:33:52;;;;;;;5.80;4.28;;;;;;;1.44;100.00;99869.31;6247087;28;20049;-70
2023/01/19 09:36:54;;;;;;;6.18;4.55;;;;;;;1.43;100.00;99872.81;6247183;28;20053;-71
2023/01/19 09:39:55;;;;;;;8.60;5.10;;;;;;;1.48;100.00;99876.94;6247145;28;20060;-70
2023/01/19 09:43:03;;;;;;;7.30;3.95;;;;;;;1.50;100.00;99879.50;6246878;28;20046;-71
2023/01/19 09:46:12;;;;;;;5.90;3.97;;;;;;;1.55;100.00;99880.22;6246855;28;20394;-71
2023/01/19 09:49:15;;;;;;;7.13;3.95;;;;;;;1.61;100.00;99884.34;6246931;28;20049;-70
2023/01/19 09:52:19;;;;;;;5.70;4.03;;;;;;;1.63;100.00;99882.53;6247037;28;20076;-70
2023/01/19 09:55:24;;;;;;;5.57;3.40;;;;;;;1.66;100.00;99892.81;6246880;28;20279;-70
2023/01/19 09:58:26;;;;;;;5.18;3.83;;;;;;;1.69;100.00;99895.31;6246416;28;20053;-69
2023/01/19 10:01:36;;;;;;;8.43;5.05;;;;;;;1.70;100.00;99894.44;6246537;28;20050;-68
2023/01/19 10:04:40;;;;;;;8.07;3.83;;;;;;;1.70;100.00;99889.25;6246331;28;20042;-68
2023/01/19 10:07:56;;;;;;;9.38;5.03;;;;;;;1.70;100.00;99907.38;6246512;28;20531;-68
2023/01/19 10:10:58;;;;;;;9.18;5.22;;;;;;;1.75;100.00;99905.50;6246876;28;20049;-68
2023/01/19 10:14:00;;;;;;;7.55;3.38;;;;;;;1.76;100.00;99912.34;6246466;28;20041;-69
2023/01/19 10:17:11;;;;;;;7.82;3.83;;;;;;;1.82;100.00;99916.50;6246355;28;20064;-68
2023/01/19 10:20:19;;;;;;;11.10;4.30;;;;;;;1.81;100.00;99913.06;6246422;28;20054;-69
2023/01/19 10:23:34;;;;;;;9.80;5.22;;;;;;;1.78;100.00;99914.03;6246278;28;20413;-68
2023/01/19 10:26:39;;;;;;;6.05;4.05;;;;;;;1.88;100.00;99926.69;6246412;28;20074;-70
2023/01/19 10:29:41;;;;;;;6.55;3.83;;;;;;;1.80;100.00;99918.28;6246220;28;20060;-68
2023/01/19 10:32:44;;;;;;;7.55;3.95;;;;;;;1.89;100.00;99912.81;6246126;28;20060;-68
2023/01/19 10:35:47;;;;;;;7.70;4.38;;;;;;;2.01;100.00;99915.03;6246186;28;20054;-68
2023/01/19 10:38:49;;;;;;;11.43;4.63;;;;;;;1.92;100.00;99931.72;6246338;28;20060;-68
2023/01/19 10:41:52;;;;;;;7.38;4.43;;;;;;;1.96;100.00;99928.16;6246063;28;20050;-68
2023/01/19 10:44:54;;;;;;;8.10;4.28;;;;;;;1.86;100.00;99921.53;6246104;28;20052;-68
2023/01/19 10:48:04;;;;;;;8.70;4.80;;;;;;;1.88;100.00;99919.75;6246077;28;20516;-68
2023/01/19 10:51:06;;;;;;;6.20;3.22;;;;;;;1.96;100.00;99932.47;6246054;28;20049;-68
2023/01/19 10:54:13;;;;;;;5.28;3.72;;;;;;;1.99;100.00;99930.63;6245867;28;20485;-68
2023/01/19 10:57:25;;;;;;;8.77;4.25;;;;;;;2.01;100.00;99936.63;6246322;28;20053;-68
2023/01/19 11:00:32;;;;;;;7.93;4.72;;;;;;;2.11;100.00;99929.41;6245844;28;20288;-70
2023/01/19 11:03:35;;;;;;;8.35;4.10;;;;;;;2.07;100.00;99929.53;6245984;28;20501;-70
2023/01/19 11:06:36;;;;;;;8.05;4.40;;;;;;;2.02;100.00;99940.91;6245826;28;20064;-71
2023/01/19 11:09:37;;;;;;;6.97;4.78;;;;;;;1.92;100.00;99936.06;6245986;28;20485;-70
2023/01/19 11:12:41;;;;;;;6.25;3.45;;;;;;;1.99;100.00;99940.13;6249032;28;20046;-70
2023/01/19 11:15:47;;;;;;;7.50;4.10;;;;;;;1.88;100.00;99932.72;6250281;28;20053;-70
2023/01/19 11:18:52;;;;;;;5.72;3.58;;;;;;;1.87;100.00;99937.94;6250367;28;20053;-70
2023/01/19 11:22:07;;;;;;;6.30;4.07;;;;;;;1.85;100.00;99940.56;6250259;28;20065;-70
2023/01/19 11:25:22;;;;;;;7.50;3.78;;;;;;;1.81;100.00;99945.88;6249971;28;20515;-70
2023/01/19 11:28:28;;;;;;;5.55;3.20;;;;;;;1.78;100.00;99949.44;6250063;28;20076;-70
2023/01/19 11:31:33;;;;;;;5.30;2.95;;;;;;;1.83;100.00;99944.97;6249666;28;20432;-70
2023/01/19 11:34:37;;;;;;;6.45;3.88;;;;;;;1.80;100.00;99946.78;6249986;28;20052;-70
2023/01/19 11:37:41;;;;;;;5.32;3.42;;;;;;;1.78;100.00;99950.28;6249852;28;20050;-70
2023/01/19 11:40:50;;;;;;;4.25;2.67;;;;;;;1.79;100.00;99945.94;6249687;28;20068;-70
2023/01/19 11:43:55;;;;;;;7.68;4.30;;;;;;;1.85;100.00;99952.66;6249443;28;20052;-71
2023/01/19 11:46:58;;;;;;;5.25;3.22;;;;;;;1.86;100.00;99942.25;6249914;28;20053;-70
2023/01/19 11:50:05;;;;;;;7.28;3.45;;;;;;;1.89;100.00;99949.94;6249567;28;20056;-70
2023/01/19 11:53:15;;;;;;;9.82;3.70;;;;;;;1.85;100.00;99950.09;6249679;28;20520;-70
2023/01/19 11:56:21;;;;;;;8.02;3.72;;;;;;;1.93;100.00;99948.97;6249340;28;20054;-70
2023/01/19 11:59:24;;;;;;;5.68;3.58;;;;;;;2.00;100.00;99953.06;6249451;28;20057;-70
2023/01/19 12:02:28;;;;;;;7.93;4.20;;;;;;;2.06;100.00;99959.78;6249095;28;20136;-70
2023/01/19 12:05:33;;;;;;;5.45;3.45;;;;;;;1.94;100.00;99950.66;6249411;28;20053;-70
2023/01/19 12:08:38;;;;;;;5.78;3.70;;;;;;;2.01;100.00;99956.50;6249235;28;20054;-69
2023/01/19 12:11:43;;;;;;;8.45;3.70;;;;;;;2.03;100.00;99950.34;6248797;28;20049;-70
2023/01/19 12:14:55;;;;;;;9.70;3.72;;;;;;;2.07;100.00;99953.72;6248915;28;20052;-70
2023/01/19 12:18:00;;;;;;;6.75;3.50;;;;;;;2.19;100.00;99961.09;6248907;28;20060;-70
2023/01/19 12:21:03;;;;;;;7.53;3.75;;;;;;;2.20;100.00;99960.22;6248763;28;20444;-70
2023/01/19 12:24:14;;;;;;;11.20;3.65;;;;;;;2.18;100.00;99963.72;6248142;28;20045;-70
2023/01/19 12:27:26;;;;;;;4.57;3.25;;;;;;;2.24;100.00;99969.59;6248305;28;20072;-70
2023/01/19 12:30:29;;;;;;;8.18;3.70;;;;;;;2.27;100.00;99966.91;6248222;28;20075;-70
2023/01/19 12:33:34;;;;;;;4.45;3.13;;;;;;;2.31;100.00;99965.03;6248689;28;20052;-70
2023/01/19 12:36:38;;;;;;;7.78;3.38;;;;;;;2.37;100.00;99967.44;6248370;28;20053;-70
2023/01/19 12:39:48;;;;;;;6.38;3.17;;;;;;;2.43;100.00;99967.25;6248393;28;20398;-70
2023/01/19 12:42:57;;;;;;;9.20;3.50;;;;;;;2.51;100.00;99973.03;6248208;28;20041;-70
2023/01/19 12:45:59;;;;;;;7.13;4.18;;;;;;;2.61;100.00;99970.13;6248202;28;20049;-70
2023/01/19 12:49:05;;;;;;;6.32;3.38;;;;;;;2.65;100.00;99971.72;6248167;28;20053;-70
2023/01/19 12:52:29;;;;;;;6.47;3.55;;;;;;;2.76;100.00;99978.25;6248488;28;20057;-70
2023/01/19 12:55:32;;;;;;;6.55;3.25;;;;;;;2.73;100.00;99983.56;6247814;28;20140;-70
2023/01/19 12:58:34;;;;;;;9.82;3.60;;;;;;;2.80;100.00;99984.19;6248016;28;20045;-70
2023/01/19 13:01:35;;;;;;;14.55;3.63;;;;;;;2.85;100.00;99987.47;6247717;28;20049;-70
2023/01/19 13:04:36;;;;;;;4.97;2.88;;;;;;;2.97;100.00;99988.81;6247805;28;20046;-70
2023/01/19 13:08:11;;;;;;;6.13;3.42;;;;;;;3.05;100.00;99990.25;6247642;28;20056;-70
2023/01/19 13:11:18;;;;;;;5.63;2.72;;;;;;;3.10;100.00;99992.69;6247527;28;20529;-70
2023/01/19 13:14:35;;;;;;;5.53;2.95;;;;;;;3.16;100.00;99999.41;6247447;28;20501;-70
2023/01/19 13:17:46;;;;;;;7.10;2.88;;;;;;;3.20;100.00;100006.19;6247770;28;20058;-70
2023/01/19 13:20:52;;;;;;;10.25;3.30;;;;;;;3.30;100.00;100005.78;6247146;28;20057;-70
2023/01/19 13:23:56;;;;;;;5.40;2.88;;;;;;;3.34;100.00;100013.47;6247282;28;20508;-70
2023/01/19 13:27:02;;;;;;;4.15;2.25;;;;;;;3.27;100.00;100010.22;6246757;28;20054;-70
2023/01/19 13:30:10;;;;;;;7.00;2.40;;;;;;;3.27;100.00;100018.03;6247142;28;20065;-70
2023/01/19 13:33:19;;;;;;;12.75;2.17;;;;;;;3.28;100.00;100014.56;6246645;28;20045;-70
2023/01/19 13:36:26;;;;;;;5.10;2.50;;;;;;;3.27;100.00;100013.72;6246932;28;20060;-70
2023/01/19 13:39:30;;;;;;;3.33;2.42;;;;;;;3.27;100.00;100015.44;6247192;28;20053;-70
2023/01/19 13:42:36;;;;;;;3.10;1.90;;;;;;;3.29;100.00;100024.88;6246827;28;20077;-70
2023/01/19 13:45:40;;;;;;;4.78;2.08;;;;;;;3.30;100.00;100023.97;6247068;28;20057;-70
2023/01/19 13:48:53;;;;;;;9.60;2.42;;;;;;;3.34;100.00;100029.91;6247087;28;20050;-70
2023/01/19 13:52:12;;;;;;;3.72;1.85;;;;;;;3.39;100.00;100029.75;6246864;28;20420;-70
2023/01/19 13:55:16;;;;;;;8.38;1.73;;;;;;;3.49;100.00;100038.91;6246631;28;20049;-70
2023/01/19 13:58:22;;;;;;;6.63;2.15;;;;;;;3.56;100.00;100036.03;6246881;28;20075;-70
2023/01/19 14:01:24;;;;;;;8.18;2.88;;;;;;;3.63;100.00;100051.38;6246374;28;20046;-68
2023/01/19 14:04:28;;;;;;;4.63;2.08;;;;;;;3.72;100.00;100048.44;6246598;28;20512;-70
2023/01/19 14:07:29;;;;;;;6.93;2.40;;;;;;;3.73;100.00;100051.03;6246685;28;20053;-70
2023/01/19 14:10:32;;;;;;;2.65;1.27;;;;;;;3.73;100.00;100055.38;6246238;28;20464;-70
2023/01/19 14:13:39;;;;;;;6.68;1.50;;;;;;;3.72;100.00;100056.25;6246650;28;20061;-70
2023/01/19 14:16:40;;;;;;;8.73;2.10;;;;;;;3.84;100.00;100063.59;6246321;28;20053;-70
2023/01/19 14:19:48;;;;;;;6.10;1.02;;;;;;;3.84;100.00;100061.00;6246517;28;20432;-70
2023/01/19 14:22:50;;;;;;;4.05;0.90;;;;;;;3.84;100.00;100071.41;6246300;28;20053;-70
2023/01/19 14:25:51;;;;;;;2.17;1.48;;;;;;;3.78;100.00;100075.09;6246273;28;20131;-70
2023/01/19 14:28:54;;;;;;;9.05;1.23;;;;;;;3.80;100.00;100078.47;6246390;28;20049;-70
2023/01/19 14:32:12;;;;;;;12.32;1.77;;;;;;;3.78;100.00;100084.63;6246074;28;20050;-70
2023/01/19 14:35:22;;;;;;;6.80;1.52;;;;;;;3.81;100.00;100087.97;6246649;28;20111;-70